Time;durP1;ratioP1;P1;durP2;ratioP2;P2;SDS_P1;SDS_P2;PMS_P1;PMS_P2;Temp;Humidity;BMP_temperature;BMP_pressure;BME280_temperature;BME280_humidity;BME280_pressure;Samples;Min_cycle;Max_cycle;Signal;HPM_P1;HPM_P2
2023/07/06 18:36:47;;;;;;;;;;;26.70;82.30;;;;;;5063439;28;20043;-94
2023/07/06 18:39:13;;;;;;;;;;;26.50;83.50;;;;;;5044886;28;19951;-90
2023/07/06 18:41:39;;;;;;;;;;;26.40;84.50;;;;;;5041657;28;19913;-91
2023/07/06 18:44:04;;;;;;;;;;;26.40;85.30;;;;;;5014396;28;20013;-91
2023/07/06 18:46:30;;;;;;;;;;;26.50;85.90;;;;;;5041406;28;19996;-92
2023/07/06 18:48:55;;;;;;;;;;;26.50;86.20;;;;;;5020141;28;19913;-91
2023/07/06 18:51:21;;;;;;;;;;;26.50;86.50;;;;;;5037683;28;19913;-92
2023/07/06 18:53:46;;;;;;;;;;;26.60;86.90;;;;;;5014824;28;20004;-94
2023/07/06 18:56:13;;;;;;;;;;;26.60;87.00;;;;;;5024076;28;20301;-96
2023/07/06 18:58:40;;;;;;;;;;;26.60;86.90;;;;;;5054039;28;19900;-93
2023/07/06 19:01:06;;;;;;;;;;;26.60;86.90;;;;;;5049315;28;20400;-93
2023/07/06 19:03:32;;;;;;;;;;;26.60;87.10;;;;;;5055238;28;19909;-93
2023/07/06 19:05:58;;;;;;;;;;;26.60;86.80;;;;;;5055194;28;19919;-95
2023/07/06 19:08:23;;;;;;;;;;;26.60;86.90;;;;;;5052226;28;19916;-93
2023/07/06 19:10:49;;;;;;;;;;;26.60;87.10;;;;;;5038265;28;19909;-92
2023/07/06 19:13:14;;;;;;;;;;;26.60;87.00;;;;;;5025312;28;19920;-92
2023/07/06 19:15:46;;;;;;;;;;;26.60;87.00;;;;;;5024057;28;20364;-91
2023/07/06 19:18:12;;;;;;;;;;;26.60;87.30;;;;;;5038968;28;19920;-92
2023/07/06 19:20:38;;;;;;;;;;;26.50;87.00;;;;;;5057646;28;19913;-91
2023/07/06 19:23:05;;;;;;;;;;;26.50;87.00;;;;;;5055727;28;19915;-91
2023/07/06 19:25:36;;;;;;;;;;;26.50;86.80;;;;;;5037120;28;19916;-95
2023/07/06 19:28:05;;;;;;;;;;;26.50;87.10;;;;;;5041433;28;19959;-91
2023/07/06 19:30:31;;;;;;;;;;;26.40;87.10;;;;;;5040422;28;19917;-94
2023/07/06 19:32:59;;;;;;;;;;;26.40;87.30;;;;;;5030749;28;20000;-94
2023/07/06 19:35:28;;;;;;;;;;;26.30;87.40;;;;;;5030306;28;19925;-94
2023/07/06 19:37:57;;;;;;;;;;;26.30;87.60;;;;;;5041492;28;20032;-96
2023/07/06 19:40:23;;;;;;;;;;;26.30;87.90;;;;;;5024694;28;20397;-90
2023/07/06 19:42:49;;;;;;;;;;;26.30;88.00;;;;;;5024767;28;19913;-90
2023/07/06 19:45:14;;;;;;;;;;;26.20;88.20;;;;;;5039633;28;20386;-91
2023/07/06 19:47:40;;;;;;;;;;;26.20;88.60;;;;;;5020000;28;19963;-91
2023/07/06 19:50:06;;;;;;;;;;;26.20;88.70;;;;;;5038323;28;19909;-93
2023/07/06 19:52:32;;;;;;;;;;;26.20;88.80;;;;;;5013169;28;20002;-92
2023/07/06 19:54:58;;;;;;;;;;;26.20;88.90;;;;;;5019959;28;20014;-95
2023/07/06 19:57:25;;;;;;;;;;;26.10;89.00;;;;;;5028204;28;20336;-95
2023/07/06 19:59:52;;;;;;;;;;;26.10;89.30;;;;;;5030466;28;19944;-95
2023/07/06 20:02:20;;;;;;;;;;;26.00;90.90;;;;;;5039532;28;19913;-96
2023/07/06 20:04:50;;;;;;;;;;;25.80;90.60;;;;;;5020697;28;19909;-96
2023/07/06 20:07:17;;;;;;;;;;;25.60;90.50;;;;;;5027967;28;19916;-96
2023/07/06 20:09:43;;;;;;;;;;;25.40;90.60;;;;;;5028481;28;20310;-95
2023/07/06 20:17:22;;;;;;;;;;;25.00;91.30;;;;;;5117275;22;19930;-92
2023/07/06 20:19:48;;;;;;;;;;;24.90;91.50;;;;;;4987035;28;19910;-94
2023/07/06 20:22:13;;;;;;;;;;;24.90;91.60;;;;;;4961209;28;20001;-92
2023/07/06 20:24:39;;;;;;;;;;;24.90;91.60;;;;;;4993821;28;20362;-92
2023/07/06 20:27:05;;;;;;;;;;;24.90;91.70;;;;;;4992560;28;19910;-92
2023/07/06 20:34:42;;;;;;;;;;;24.80;92.00;;;;;;5049749;22;19929;-93
2023/07/06 20:37:07;;;;;;;;;;;24.80;92.40;;;;;;4990874;28;20389;-94
2023/07/06 20:39:36;;;;;;;;;;;24.70;92.10;;;;;;4994484;28;19977;-95
2023/07/06 20:42:02;;;;;;;;;;;24.70;92.10;;;;;;4999979;28;19904;-96
2023/07/06 20:47:16;;;;;;;;;;;24.70;92.10;;;;;;5253055;23;20010;-94
2023/07/06 20:49:42;;;;;;;;;;;24.60;92.20;;;;;;4973984;28;20387;-91
2023/07/06 20:52:08;;;;;;;;;;;24.70;92.20;;;;;;4985249;28;19914;-89
2023/07/06 20:54:34;;;;;;;;;;;24.60;92.20;;;;;;4971391;28;19985;-91
2023/07/06 20:56:59;;;;;;;;;;;24.60;92.20;;;;;;4965082;28;19914;-93
2023/07/06 20:59:25;;;;;;;;;;;24.60;92.30;;;;;;4959289;28;20001;-92
2023/07/06 21:01:51;;;;;;;;;;;24.50;92.30;;;;;;4963440;28;19918;-94
2023/07/06 21:04:17;;;;;;;;;;;24.50;92.40;;;;;;4970756;28;19999;-94
2023/07/06 21:06:43;;;;;;;;;;;24.50;92.50;;;;;;4987098;28;20266;-93
2023/07/06 21:21:08;;;;;;;;;;;24.40;92.40;;;;;;5235684;22;2896607;31
2023/07/06 21:23:37;;;;;;;;;;;24.90;92.20;;;;;;5043688;28;19925;-96
2023/07/06 21:26:03;;;;;;;;;;;24.80;92.30;;;;;;5024818;28;19960;-96
2023/07/06 21:28:28;;;;;;;;;;;24.70;92.50;;;;;;5027880;28;19917;-95
2023/07/06 21:30:55;;;;;;;;;;;24.60;92.70;;;;;;5024614;28;19945;-96
2023/07/06 21:33:21;;;;;;;;;;;24.50;92.90;;;;;;5026051;28;19916;-96
2023/07/06 21:38:14;;;;;;;;;;;24.20;93.30;;;;;;5229088;22;19926;-93
2023/07/06 21:40:49;;;;;;;;;;;24.10;93.50;;;;;;4997184;28;20005;-95
2023/07/06 21:56:49;;;;;;;;;;;23.80;94.50;;;;;;5436889;23;19926;-96
